createdAt,value
2018-01-18T00:00:57.848Z,99806.75
2018-01-18T00:03:25.415Z,99800.38
2018-01-18T00:05:53.017Z,99814.92
2018-01-18T00:08:20.613Z,99808.42
2018-01-18T00:10:48.513Z,99810.91
2018-01-18T00:13:16.367Z,99802.73
2018-01-18T00:15:43.934Z,99805.79
2018-01-18T00:18:11.506Z,99812.52
2018-01-18T00:20:39.098Z,99811.33
2018-01-18T00:23:06.921Z,99819.11
2018-01-18T00:25:34.503Z,99813.89
2018-01-18T00:28:02.091Z,99820.64
2018-01-18T00:30:29.657Z,99816.87
2018-01-18T00:32:57.469Z,99818.95
2018-01-18T00:35:25.338Z,99816.41
2018-01-18T00:37:52.884Z,99815.92
2018-01-18T00:40:20.520Z,99819.38
2018-01-18T00:42:48.124Z,99817.45
2018-01-18T00:45:15.681Z,99821.73
2018-01-18T00:47:43.293Z,99821.73
2018-01-18T00:50:10.839Z,99824.85
2018-01-18T00:52:38.413Z,99814.11
2018-01-18T00:55:05.941Z,99810.64
2018-01-18T00:57:33.494Z,99805.59
2018-01-18T01:00:01.097Z,99811.42
2018-01-18T01:02:28.666Z,99814.67
2018-01-18T01:04:56.585Z,99810.43
2018-01-18T01:07:24.162Z,99810.57
2018-01-18T01:09:51.737Z,99808.27
2018-01-18T01:12:19.348Z,99813.77
2018-01-18T01:14:47.052Z,99818.48
2018-01-18T01:17:14.669Z,99822.70
2018-01-18T01:19:42.247Z,99819.38
2018-01-18T01:22:09.802Z,99822.83
2018-01-18T01:24:37.694Z,99827.77
2018-01-18T01:27:05.255Z,99828.31
2018-01-18T01:29:32.879Z,99826.73
2018-01-18T01:32:00.780Z,99822.97
2018-01-18T01:34:28.342Z,99820.75
2018-01-18T01:36:55.902Z,99822.48
2018-01-18T01:39:23.472Z,99829.41
2018-01-18T01:41:51.338Z,99824.66
2018-01-18T01:44:18.901Z,99818.67
2018-01-18T01:46:46.753Z,99816.19
2018-01-18T01:49:14.336Z,99806.13
2018-01-18T01:51:41.903Z,99814.53
2018-01-18T01:54:09.575Z,99815.08
2018-01-18T01:56:37.134Z,99820.02
2018-01-18T01:59:04.697Z,99808.50
2018-01-18T02:01:32.294Z,99816.96
2018-01-18T02:03:59.847Z,99805.84
2018-01-18T02:06:27.454Z,99810.98
2018-01-18T02:08:55.333Z,99803.35
2018-01-18T02:11:22.875Z,99803.70
2018-01-18T02:13:50.430Z,99819.63
2018-01-18T02:16:18.014Z,99809.58
2018-01-18T02:18:45.665Z,99798.02
2018-01-18T02:21:13.261Z,99799.23
2018-01-18T02:23:41.087Z,99794.87
2018-01-18T02:26:08.680Z,99802.09
2018-01-18T02:28:36.270Z,99816.09
2018-01-18T02:31:03.845Z,99815.19
2018-01-18T02:33:31.396Z,99811.41
2018-01-18T02:35:58.957Z,99814.92
2018-01-18T02:38:26.876Z,99819.89
2018-01-18T02:40:54.443Z,99812.58
2018-01-18T02:43:22.049Z,99812.84
2018-01-18T02:45:49.634Z,99810.63
2018-01-18T02:48:17.217Z,99806.48
2018-01-18T02:50:44.799Z,99809.19
2018-01-18T02:53:12.384Z,99800.98
2018-01-18T02:55:39.977Z,99800.36
2018-01-18T02:58:07.544Z,99798.77
2018-01-18T03:00:35.148Z,99796.41
2018-01-18T03:03:02.709Z,99799.27
2018-01-18T03:05:30.544Z,99798.86
2018-01-18T03:07:58.134Z,99786.01
2018-01-18T03:10:25.696Z,99789.08
2018-01-18T03:12:53.250Z,99779.44
2018-01-18T03:15:20.877Z,99773.75
2018-01-18T03:17:48.440Z,99768.45
2018-01-18T03:20:16.049Z,99769.31
2018-01-18T03:22:43.607Z,99769.22
2018-01-18T03:25:11.180Z,99772.22
2018-01-18T03:27:38.817Z,99765.14
2018-01-18T03:30:06.372Z,99759.33
2018-01-18T03:32:33.966Z,99766.41
2018-01-18T03:35:01.554Z,99760.84
2018-01-18T03:37:29.150Z,99763.08
2018-01-18T03:39:56.811Z,99758.48
2018-01-18T03:42:24.379Z,99753.20
2018-01-18T03:44:51.966Z,99745.11
2018-01-18T03:47:19.556Z,99743.50
2018-01-18T03:49:47.165Z,99749.36
2018-01-18T03:52:14.819Z,99745.86
2018-01-18T03:54:42.411Z,99745.53
2018-01-18T03:57:10.336Z,99740.05
2018-01-18T03:59:37.909Z,99744.22
2018-01-18T04:02:05.459Z,99745.66
2018-01-18T04:04:33.427Z,99735.27
2018-01-18T04:07:00.995Z,99739.07
2018-01-18T04:09:28.569Z,99727.08
2018-01-18T04:11:56.303Z,99724.84
2018-01-18T04:14:23.915Z,99721.45
2018-01-18T04:16:51.473Z,99728.13
2018-01-18T04:19:19.040Z,99717.16
2018-01-18T04:21:46.875Z,99713.20
2018-01-18T04:24:14.456Z,99705.72
2018-01-18T04:26:42.030Z,99704.55
2018-01-18T04:29:09.852Z,99702.73
2018-01-18T04:31:37.398Z,99699.37
2018-01-18T04:34:04.993Z,99690.81
2018-01-18T04:36:32.588Z,99700.05
2018-01-18T04:39:00.153Z,99700.10
2018-01-18T04:41:28.071Z,99704.69
2018-01-18T04:43:55.625Z,99710.92
2018-01-18T04:46:23.241Z,99716.00
2018-01-18T04:48:50.796Z,99706.76
2018-01-18T04:51:18.360Z,99707.46
2018-01-18T04:53:45.959Z,99709.80
2018-01-18T04:56:13.565Z,99702.61
2018-01-18T04:58:41.181Z,99708.05
2018-01-18T05:01:08.821Z,99703.91
2018-01-18T05:03:36.489Z,99692.95
2018-01-18T05:06:04.090Z,99685.28
2018-01-18T05:08:31.731Z,99686.93
2018-01-18T05:10:59.362Z,99676.06
2018-01-18T05:13:26.976Z,99676.24
2018-01-18T05:15:54.838Z,99685.12
2018-01-18T05:18:22.494Z,99681.51
2018-01-18T05:20:50.117Z,99690.26
2018-01-18T05:23:17.750Z,99677.80
2018-01-18T05:25:45.332Z,99679.09
2018-01-18T05:28:13.257Z,99676.95
2018-01-18T05:30:40.863Z,99669.14
2018-01-18T05:33:08.404Z,99652.80
2018-01-18T05:35:36.006Z,99646.77
2018-01-18T05:38:03.850Z,99637.63
2018-01-18T05:40:31.404Z,99626.16
2018-01-18T05:42:58.995Z,99630.97
2018-01-18T05:45:26.779Z,99617.81
2018-01-18T05:47:54.412Z,99609.28
2018-01-18T05:50:21.990Z,99604.56
2018-01-18T05:52:49.553Z,99598.05
2018-01-18T05:55:17.142Z,99594.94
2018-01-18T05:57:44.771Z,99591.55
2018-01-18T06:00:12.669Z,99582.63
2018-01-18T06:02:40.551Z,99575.19
2018-01-18T06:05:08.242Z,99572.79
2018-01-18T06:07:36.181Z,99562.72
2018-01-18T06:10:03.783Z,99557.19
2018-01-18T06:12:31.392Z,99549.92
2018-01-18T06:14:59.268Z,99540.64
2018-01-18T06:17:26.829Z,99537.39
2018-01-18T06:19:54.415Z,99529.34
2018-01-18T06:22:22.263Z,99525.95
2018-01-18T06:24:49.836Z,99524.70
2018-01-18T06:27:17.383Z,99529.91
2018-01-18T06:29:45.035Z,99525.45
2018-01-18T06:32:12.588Z,99529.64
2018-01-18T06:34:40.169Z,99524.80
2018-01-18T06:37:07.781Z,99519.91
2018-01-18T06:39:35.354Z,99509.80
2018-01-18T06:42:03.259Z,99506.07
2018-01-18T06:44:30.823Z,99503.09
2018-01-18T06:46:58.375Z,99496.45
2018-01-18T06:49:26.044Z,99487.91
2018-01-18T06:51:53.708Z,99478.14
2018-01-18T06:54:21.287Z,99474.38
2018-01-18T06:56:48.904Z,99457.77
2018-01-18T06:59:16.908Z,99453.48
2018-01-18T07:01:44.802Z,99445.92
2018-01-18T07:04:12.373Z,99442.83
2018-01-18T07:06:39.963Z,99440.42
2018-01-18T07:09:07.572Z,99428.80
2018-01-18T07:11:35.135Z,99418.88
2018-01-18T07:14:02.782Z,99404.95
2018-01-18T07:16:30.338Z,99400.90
2018-01-18T07:18:58.200Z,99393.19
2018-01-18T07:21:26.023Z,99382.55
2018-01-18T07:23:53.633Z,99384.31
2018-01-18T07:26:21.223Z,99370.02
2018-01-18T07:28:48.828Z,99368.17
2018-01-18T07:31:16.431Z,99355.30
2018-01-18T07:33:44.018Z,99349.38
2018-01-18T07:36:11.624Z,99338.63
2018-01-18T07:38:39.190Z,99332.21
2018-01-18T07:41:06.771Z,99319.43
2018-01-18T07:43:35.302Z,99307.34
2018-01-18T07:46:02.961Z,99297.55
2018-01-18T07:48:30.534Z,99284.98
2018-01-18T07:50:58.114Z,99272.47
2018-01-18T07:53:25.761Z,99263.31
2018-01-18T07:55:53.309Z,99250.98
2018-01-18T07:58:20.899Z,99241.84
2018-01-18T08:00:48.561Z,99235.81
2018-01-18T08:03:22.080Z,99225.21
2018-01-18T08:05:49.948Z,99215.72
2018-01-18T08:08:18.018Z,99207.73
2018-01-18T08:10:45.658Z,99193.76
2018-01-18T08:13:13.237Z,99180.00
2018-01-18T08:15:40.907Z,99175.29
2018-01-18T08:18:08.664Z,99169.25
2018-01-18T08:20:36.248Z,99163.92
2018-01-18T08:23:04.112Z,99150.64
2018-01-18T08:25:31.706Z,99139.69
2018-01-18T08:27:59.255Z,99136.37
2018-01-18T08:30:27.198Z,99125.36
2018-01-18T08:32:54.791Z,99122.78
2018-01-18T08:35:22.453Z,99116.85
2018-01-18T08:37:50.061Z,99100.48
2018-01-18T08:40:17.642Z,99090.98
2018-01-18T08:42:45.235Z,99082.06
2018-01-18T08:45:13.072Z,99074.28
2018-01-18T08:47:40.622Z,99068.93
2018-01-18T08:50:08.288Z,99056.11
2018-01-18T08:52:35.842Z,99042.88
2018-01-18T08:55:03.428Z,99033.54
2018-01-18T08:57:31.020Z,99032.19
2018-01-18T08:59:58.605Z,99023.13
2018-01-18T09:02:27.006Z,99006.97
2018-01-18T09:04:54.598Z,99008.78
2018-01-18T09:07:22.155Z,98997.41
2018-01-18T09:09:49.767Z,98987.33
2018-01-18T09:12:17.565Z,98972.71
2018-01-18T09:14:45.176Z,98957.80
2018-01-18T09:17:12.774Z,98945.74
2018-01-18T09:19:40.355Z,98932.20
2018-01-18T09:22:08.030Z,98919.22
2018-01-18T09:24:35.895Z,98902.46
2018-01-18T09:27:04.166Z,98880.24
2018-01-18T09:29:31.724Z,98868.97
2018-01-18T09:31:59.279Z,98842.36
2018-01-18T09:34:26.917Z,98817.41
2018-01-18T09:36:54.822Z,98802.47
2018-01-18T09:39:22.444Z,98801.37
2018-01-18T09:41:50.001Z,98785.21
2018-01-18T09:44:17.587Z,98780.13
2018-01-18T09:46:45.216Z,98775.64
2018-01-18T09:49:12.828Z,98761.53
2018-01-18T09:51:40.469Z,98756.98
2018-01-18T09:54:08.164Z,98749.91
2018-01-18T09:56:35.901Z,98737.59
2018-01-18T09:59:03.490Z,98717.11
2018-01-18T10:01:31.081Z,98709.31
2018-01-18T10:03:58.672Z,98686.92
2018-01-18T10:06:26.298Z,98671.15
2018-01-18T10:08:54.031Z,98653.57
2018-01-18T10:11:21.658Z,98636.11
2018-01-18T10:13:49.250Z,98616.19
2018-01-18T10:16:16.834Z,98600.34
2018-01-18T10:18:44.396Z,98585.59
2018-01-18T10:21:12.240Z,98566.05
2018-01-18T10:23:39.817Z,98562.31
2018-01-18T10:26:07.424Z,98554.14
2018-01-18T10:28:35.057Z,98536.69
2018-01-18T10:31:02.645Z,98502.92
2018-01-18T10:33:30.212Z,98489.80
2018-01-18T10:35:57.806Z,98496.57
2018-01-18T10:38:25.485Z,98480.83
2018-01-18T10:40:53.325Z,98474.17
2018-01-18T10:43:20.885Z,98444.91
2018-01-18T10:45:48.475Z,98424.12
2018-01-18T10:48:16.072Z,98416.23
2018-01-18T10:50:43.636Z,98397.45
2018-01-18T10:53:11.328Z,98392.51
2018-01-18T10:55:39.029Z,98371.04
2018-01-18T10:58:06.650Z,98360.11
2018-01-18T11:00:34.320Z,98337.44
2018-01-18T11:03:01.903Z,98325.05
2018-01-18T11:05:29.505Z,98324.87
2018-01-18T11:07:57.097Z,98311.00
2018-01-18T11:10:24.980Z,98314.53
2018-01-18T11:12:52.733Z,98299.31
2018-01-18T11:15:20.307Z,98274.66
2018-01-18T11:17:47.913Z,98255.36
2018-01-18T11:20:15.603Z,98238.97
2018-01-18T11:22:43.269Z,98211.34
2018-01-18T11:25:10.845Z,98209.20
2018-01-18T11:27:38.458Z,98196.03
2018-01-18T11:30:06.050Z,98180.90
2018-01-18T11:32:33.634Z,98168.25
2018-01-18T11:35:01.266Z,98162.60
2018-01-18T11:37:29.183Z,98152.17
2018-01-18T11:39:56.716Z,98133.56
2018-01-18T11:42:24.416Z,98113.43
2018-01-18T11:44:52.224Z,98094.90
2018-01-18T11:47:19.799Z,98071.74
2018-01-18T11:49:47.442Z,98049.70
2018-01-18T11:52:15.006Z,98057.72
2018-01-18T11:54:42.661Z,98068.02
2018-01-18T11:57:10.236Z,98070.55
2018-01-18T11:59:37.850Z,98065.22
2018-01-18T12:02:05.458Z,98037.03
2018-01-18T12:04:33.011Z,98026.59
2018-01-18T12:07:00.739Z,97997.22
2018-01-18T12:09:28.420Z,97992.61
2018-01-18T12:11:56.007Z,97992.86
2018-01-18T12:14:23.657Z,97972.89
2018-01-18T12:16:51.208Z,97961.14
2018-01-18T12:19:19.034Z,97977.25
2018-01-18T12:21:46.598Z,97965.00
2018-01-18T12:24:14.162Z,97953.08
2018-01-18T12:26:41.758Z,97938.09
2018-01-18T12:29:09.327Z,97922.63
2018-01-18T12:31:37.012Z,97917.47
2018-01-18T12:34:04.723Z,97903.82
2018-01-18T12:36:32.272Z,97909.58
2018-01-18T12:38:59.861Z,97901.72
2018-01-18T12:41:27.452Z,97887.11
2018-01-18T12:43:55.200Z,97875.58
2018-01-18T12:46:22.851Z,97860.80
2018-01-18T12:48:50.403Z,97850.58
2018-01-18T12:51:18.021Z,97826.14
2018-01-18T12:53:45.670Z,97812.87
2018-01-18T12:56:13.257Z,97803.05
2018-01-18T12:58:40.862Z,97798.05
2018-01-18T13:01:08.436Z,97790.56
2018-01-18T13:03:36.022Z,97779.62
2018-01-18T13:06:03.935Z,97780.02
2018-01-18T13:08:31.543Z,97760.25
2018-01-18T13:10:59.108Z,97749.99
2018-01-18T13:13:26.717Z,97758.08
2018-01-18T13:15:54.359Z,97750.70
2018-01-18T13:18:22.268Z,97753.81
2018-01-18T13:20:49.969Z,97751.54
2018-01-18T13:23:17.870Z,97730.12
2018-01-18T13:25:45.424Z,97719.61
2018-01-18T13:28:13.360Z,97714.20
2018-01-18T13:30:41.017Z,97703.40
2018-01-18T13:33:09.034Z,97705.14
2018-01-18T13:35:37.011Z,97688.04
2018-01-18T13:38:04.681Z,97686.56
2018-01-18T13:40:32.262Z,97687.73
2018-01-18T13:42:59.919Z,97667.33
2018-01-18T13:45:27.858Z,97667.47
2018-01-18T13:47:55.539Z,97662.98
2018-01-18T13:50:23.285Z,97662.58
2018-01-18T13:52:50.870Z,97653.24
2018-01-18T13:55:18.483Z,97647.63
2018-01-18T13:57:46.154Z,97631.46
2018-01-18T14:00:13.818Z,97644.03
2018-01-18T14:02:41.434Z,97652.50
2018-01-18T14:05:09.080Z,97655.17
2018-01-18T14:07:36.656Z,97659.96
2018-01-18T14:10:04.263Z,97660.68
2018-01-18T14:12:31.886Z,97656.50
2018-01-18T14:14:59.516Z,97643.02
2018-01-18T14:17:27.222Z,97666.00
2018-01-18T14:19:54.810Z,97646.58
2018-01-18T14:22:22.478Z,97653.45
2018-01-18T14:24:50.080Z,97665.98
2018-01-18T14:27:17.801Z,97653.28
2018-01-18T14:29:45.388Z,97658.50
2018-01-18T14:32:13.074Z,97670.63
2018-01-18T14:34:40.737Z,97660.41
2018-01-18T14:37:08.411Z,97673.22
2018-01-18T14:39:36.143Z,97669.69
2018-01-18T14:42:03.720Z,97677.06
2018-01-18T14:44:31.485Z,97686.52
2018-01-18T14:46:59.347Z,97686.89
2018-01-18T14:49:26.904Z,97683.79
2018-01-18T14:51:54.557Z,97695.84
2018-01-18T14:54:22.531Z,97703.16
2018-01-18T14:56:50.088Z,97701.59
2018-01-18T14:59:17.666Z,97705.63
2018-01-18T15:01:45.262Z,97706.48
2018-01-18T15:04:13.196Z,97720.39
2018-01-18T15:06:40.761Z,97730.15
2018-01-18T15:09:08.336Z,97729.28
2018-01-18T15:11:35.937Z,97743.20
2018-01-18T15:14:03.536Z,97740.09
2018-01-18T15:16:31.137Z,97736.83
2018-01-18T15:18:58.687Z,97743.07
2018-01-18T15:21:26.236Z,97744.86
2018-01-18T15:23:54.430Z,97744.80
2018-01-18T15:26:22.735Z,97756.98
2018-01-18T15:28:50.664Z,97767.27
2018-01-18T15:31:18.253Z,97766.05
2018-01-18T15:33:45.807Z,97771.67
2018-01-18T15:36:13.483Z,97769.84
2018-01-18T15:38:41.396Z,97779.69
2018-01-18T15:41:09.059Z,97784.77
2018-01-18T15:43:36.718Z,97788.25
2018-01-18T15:46:04.386Z,97803.98
2018-01-18T15:48:32.252Z,97805.91
2018-01-18T15:50:59.824Z,97810.78
2018-01-18T15:53:27.528Z,97809.38
2018-01-18T15:55:55.151Z,97824.48
2018-01-18T15:58:22.798Z,97834.42
2018-01-18T16:00:50.422Z,97839.11
2018-01-18T16:03:18.027Z,97839.52
2018-01-18T16:05:45.619Z,97852.41
2018-01-18T16:08:13.187Z,97860.94
2018-01-18T16:10:40.776Z,97854.34
2018-01-18T16:13:08.365Z,97868.16
2018-01-18T16:15:35.991Z,97880.11
2018-01-18T16:18:03.624Z,97873.03
2018-01-18T16:20:31.200Z,97874.45
2018-01-18T16:22:58.774Z,97878.48
2018-01-18T16:25:26.447Z,97899.39
2018-01-18T16:27:54.029Z,97889.44
2018-01-18T16:30:21.691Z,97897.70
2018-01-18T16:32:49.273Z,97920.02
2018-01-18T16:35:16.948Z,97912.72
2018-01-18T16:37:44.736Z,97910.39
2018-01-18T16:40:12.393Z,97912.31
2018-01-18T16:42:40.060Z,97920.93
2018-01-18T16:45:07.606Z,97951.16
2018-01-18T16:47:35.479Z,97927.02
2018-01-18T16:50:03.061Z,97939.49
2018-01-18T16:52:30.657Z,97952.47
2018-01-18T16:54:58.294Z,97954.30
2018-01-18T16:57:25.850Z,97946.07
2018-01-18T16:59:53.417Z,97959.77
2018-01-18T17:02:21.083Z,97987.66
2018-01-18T17:04:48.638Z,97986.86
2018-01-18T17:07:16.276Z,98013.33
2018-01-18T17:09:43.836Z,98020.12
2018-01-18T17:12:11.478Z,98034.48
2018-01-18T17:14:39.038Z,98043.84
2018-01-18T17:17:06.602Z,98063.28
2018-01-18T17:19:34.215Z,98095.81
2018-01-18T17:22:01.821Z,98112.06
2018-01-18T17:24:29.402Z,98097.64
2018-01-18T17:26:56.977Z,98109.35
2018-01-18T17:29:24.548Z,98138.91
2018-01-18T17:31:52.179Z,98160.15
2018-01-18T17:34:19.744Z,98166.14
2018-01-18T17:36:47.341Z,98193.23
2018-01-18T17:39:14.904Z,98188.20
2018-01-18T17:41:42.511Z,98205.23
2018-01-18T17:44:10.463Z,98212.72
2018-01-18T17:46:38.099Z,98221.80
2018-01-18T17:49:06.114Z,98254.95
2018-01-18T17:51:34.087Z,98252.31
2018-01-18T17:54:01.705Z,98270.92
2018-01-18T17:56:29.384Z,98290.14
2018-01-18T17:58:57.031Z,98302.00
2018-01-18T18:01:24.580Z,98317.06
2018-01-18T18:03:52.299Z,98339.24
2018-01-18T18:06:19.902Z,98339.78
2018-01-18T18:08:47.918Z,98337.72
2018-01-18T18:11:15.520Z,98356.97
2018-01-18T18:13:43.080Z,98364.80
2018-01-18T18:16:10.694Z,98382.48
2018-01-18T18:18:38.243Z,98412.34
2018-01-18T18:21:05.815Z,98414.61
2018-01-18T18:23:33.693Z,98441.14
2018-01-18T18:26:01.351Z,98443.03
2018-01-18T18:28:29.025Z,98474.48
2018-01-18T18:30:56.902Z,98477.31
2018-01-18T18:33:24.513Z,98491.34
2018-01-18T18:35:52.158Z,98491.84
2018-01-18T18:38:19.791Z,98530.34
2018-01-18T18:40:47.574Z,98526.06
2018-01-18T18:43:15.133Z,98537.05
2018-01-18T18:45:42.758Z,98547.95
2018-01-18T18:48:10.404Z,98572.88
2018-01-18T18:50:37.979Z,98585.09
2018-01-18T18:53:05.606Z,98596.02
2018-01-18T18:55:33.170Z,98613.31
2018-01-18T18:58:00.785Z,98654.61
2018-01-18T19:00:28.353Z,98658.97
2018-01-18T19:02:55.951Z,98644.32
2018-01-18T19:05:23.600Z,98654.94
2018-01-18T19:07:51.423Z,98661.37
2018-01-18T19:10:19.096Z,98672.38
2018-01-18T19:12:46.711Z,98700.63
2018-01-18T19:15:14.731Z,98707.80
2018-01-18T19:17:42.373Z,98717.18
2018-01-18T19:20:10.002Z,98727.33
2018-01-18T19:22:37.600Z,98736.68
2018-01-18T19:25:05.484Z,98752.00
2018-01-18T19:30:06.921Z,98772.56
2018-01-18T19:32:34.556Z,98798.76
2018-01-18T19:35:02.304Z,98797.44
2018-01-18T19:37:29.990Z,98799.66
2018-01-18T19:39:57.631Z,98823.16
2018-01-18T19:42:25.382Z,98834.69
2018-01-18T19:44:53.165Z,98847.36
2018-01-18T19:47:21.852Z,98856.74
2018-01-18T19:49:49.428Z,98864.36
2018-01-18T19:52:17.165Z,98872.02
2018-01-18T19:54:44.790Z,98898.19
2018-01-18T19:57:13.133Z,98900.66
2018-01-18T19:59:40.772Z,98918.50
2018-01-18T20:02:08.338Z,98935.66
2018-01-18T20:04:36.023Z,98940.39
2018-01-18T20:07:03.662Z,98958.09
2018-01-18T20:09:32.062Z,98954.77
2018-01-18T20:11:59.766Z,98966.75
2018-01-18T20:14:27.354Z,98986.38
2018-01-18T20:16:54.987Z,98996.48
2018-01-18T20:19:23.446Z,99015.99
2018-01-18T20:21:51.073Z,99004.95
2018-01-18T20:24:18.721Z,99030.08
2018-01-18T20:26:46.393Z,99030.73
2018-01-18T20:29:14.043Z,99036.00
2018-01-18T20:31:41.740Z,99043.75
2018-01-18T20:34:09.318Z,99060.62
2018-01-18T20:36:37.866Z,99059.48
2018-01-18T20:39:05.857Z,99082.67
2018-01-18T20:41:33.535Z,99086.87
2018-01-18T20:44:01.543Z,99097.73
2018-01-18T20:46:29.096Z,99102.27
2018-01-18T20:48:56.654Z,99119.98
2018-01-18T20:51:24.260Z,99121.67
2018-01-18T20:53:52.452Z,99117.20
2018-01-18T20:56:20.112Z,99132.25
2018-01-18T20:58:47.707Z,99142.14
2018-01-18T21:01:15.421Z,99144.53
2018-01-18T21:03:43.070Z,99155.78
2018-01-18T21:06:10.673Z,99153.17
2018-01-18T21:08:38.311Z,99170.22
2018-01-18T21:11:06.263Z,99175.35
2018-01-18T21:13:33.963Z,99180.68
2018-01-18T21:16:01.601Z,99192.87
2018-01-18T21:18:29.225Z,99191.97
2018-01-18T21:20:56.917Z,99208.63
2018-01-18T21:23:24.505Z,99213.95
2018-01-18T21:25:52.196Z,99219.31
2018-01-18T21:28:20.132Z,99226.31
2018-01-18T21:30:47.712Z,99231.67
2018-01-18T21:33:15.380Z,99243.53
2018-01-18T21:35:43.061Z,99251.78
2018-01-18T21:38:10.728Z,99250.94
2018-01-18T21:40:38.289Z,99261.73
2018-01-18T21:43:05.908Z,99269.80
2018-01-18T21:45:33.626Z,99276.56
2018-01-18T21:48:01.376Z,99295.33
2018-01-18T21:50:29.005Z,99297.98
2018-01-18T21:52:56.722Z,99306.63
2018-01-18T21:55:24.462Z,99312.40
2018-01-18T21:57:52.097Z,99310.83
2018-01-18T22:00:19.691Z,99320.95
2018-01-18T22:02:47.346Z,99334.80
2018-01-18T22:05:14.962Z,99328.88
2018-01-18T22:07:43.124Z,99330.09
2018-01-18T22:10:10.846Z,99344.02
2018-01-18T22:12:38.499Z,99349.13
2018-01-18T22:15:06.520Z,99350.44
2018-01-18T22:17:34.281Z,99351.84
2018-01-18T22:20:01.902Z,99355.13
2018-01-18T22:22:29.841Z,99360.59
2018-01-18T22:24:57.521Z,99367.73
2018-01-18T22:27:25.269Z,99370.95
2018-01-18T22:29:52.933Z,99378.77
2018-01-18T22:32:20.714Z,99381.82
2018-01-18T22:34:48.474Z,99383.46
2018-01-18T22:37:16.130Z,99392.02
2018-01-18T22:39:43.771Z,99386.53
2018-01-18T22:42:11.506Z,99399.52
2018-01-18T22:44:39.111Z,99400.69
2018-01-18T22:47:06.770Z,99408.84
2018-01-18T22:49:34.337Z,99400.09
2018-01-18T22:52:01.960Z,99403.66
2018-01-18T22:54:29.557Z,99403.40
2018-01-18T22:56:57.129Z,99407.43
2018-01-18T22:59:24.761Z,99412.63
2018-01-18T23:01:52.491Z,99411.56
2018-01-18T23:04:20.089Z,99409.84
2018-01-18T23:06:47.723Z,99410.89
2018-01-18T23:09:15.346Z,99403.27
2018-01-18T23:11:43.028Z,99411.25
2018-01-18T23:14:10.604Z,99414.04
2018-01-18T23:16:38.225Z,99409.42
2018-01-18T23:19:05.857Z,99410.83
2018-01-18T23:21:33.608Z,99413.72
2018-01-18T23:24:01.275Z,99412.63
2018-01-18T23:26:28.835Z,99422.43
2018-01-18T23:28:56.437Z,99423.02
2018-01-18T23:31:24.153Z,99429.44
2018-01-18T23:33:51.738Z,99419.63
2018-01-18T23:36:19.326Z,99426.13
2018-01-18T23:38:47.010Z,99438.02
2018-01-18T23:41:14.655Z,99437.03
2018-01-18T23:43:42.257Z,99441.30
2018-01-18T23:46:09.891Z,99447.58
2018-01-18T23:48:37.520Z,99446.56
2018-01-18T23:51:05.131Z,99454.66
2018-01-18T23:53:32.960Z,99452.92
2018-01-18T23:56:00.528Z,99455.05
2018-01-18T23:58:28.132Z,99453.42
